Time;durP1;ratioP1;P1;durP2;ratioP2;P2;SDS_P1;SDS_P2;PMS_P1;PMS_P2;Temp;Humidity;BMP_temperature;BMP_pressure;BME280_temperature;BME280_humidity;BME280_pressure;Samples;Min_cycle;Max_cycle;Signal;HPM_P1;HPM_P2
2021/04/20 00:01:21;;;;;;;9.73;6.13;;;18.80;56.20;;;;;;5013385;28;20073;-60
2021/04/20 00:03:48;;;;;;;8.77;6.22;;;18.80;56.10;;;;;;5012022;28;20507;-61
2021/04/20 00:06:14;;;;;;;9.05;6.40;;;18.80;56.20;;;;;;5013754;28;20403;-61
2021/04/20 00:08:39;;;;;;;13.90;6.97;;;18.80;56.30;;;;;;5010841;28;20029;-61
2021/04/20 00:11:06;;;;;;;9.98;6.15;;;18.80;56.30;;;;;;5013432;28;20037;-61
2021/04/20 00:13:32;;;;;;;9.65;6.47;;;18.80;56.30;;;;;;5013363;28;20567;-61
2021/04/20 00:15:58;;;;;;;10.70;7.10;;;18.80;56.30;;;;;;5012771;28;20112;-61
2021/04/20 00:18:24;;;;;;;9.70;6.70;;;18.70;56.30;;;;;;5013410;28;20054;-60
2021/04/20 00:20:49;;;;;;;10.18;6.15;;;18.70;56.40;;;;;;5012812;28;20081;-61
2021/04/20 00:23:15;;;;;;;10.98;6.82;;;18.70;56.40;;;;;;5011334;28;20041;-61
2021/04/20 00:25:41;;;;;;;8.65;5.90;;;18.70;56.40;;;;;;5012948;28;20113;-61
2021/04/20 00:28:07;;;;;;;10.80;6.65;;;18.70;56.40;;;;;;5011453;28;20057;-61
2021/04/20 00:30:33;;;;;;;9.48;6.60;;;18.80;56.40;;;;;;5011008;28;20065;-61
2021/04/20 00:32:58;;;;;;;9.50;6.72;;;18.80;56.40;;;;;;5010813;28;20076;-61
2021/04/20 00:35:24;;;;;;;9.23;6.82;;;18.80;56.50;;;;;;5006925;28;20022;-61
2021/04/20 00:37:50;;;;;;;9.38;6.18;;;18.70;56.40;;;;;;5010439;28;20033;-62
2021/04/20 00:40:17;;;;;;;10.32;6.28;;;18.80;56.40;;;;;;5011446;28;20030;-61
2021/04/20 00:42:54;;;;;;;8.30;6.10;;;18.70;56.40;;;;;;5012242;28;20562;-62
2021/04/20 00:45:31;;;;;;;10.55;6.50;;;18.70;56.50;;;;;;5012110;28;20042;-61
2021/04/20 00:47:57;;;;;;;10.50;6.40;;;18.80;56.50;;;;;;5012210;28;20072;-62
2021/04/20 00:50:26;;;;;;;10.68;6.50;;;18.70;56.50;;;;;;5011233;28;20033;-61
2021/04/20 00:52:52;;;;;;;9.32;6.10;;;18.70;56.60;;;;;;4995760;28;20030;-60
2021/04/20 00:55:18;;;;;;;10.45;6.88;;;18.70;56.60;;;;;;5010816;28;20053;-62
2021/04/20 00:57:44;;;;;;;11.77;7.07;;;18.70;56.70;;;;;;4993013;28;20033;-61
2021/04/20 01:00:18;;;;;;;10.23;6.47;;;18.70;56.70;;;;;;5005186;28;20025;-61
2021/04/20 01:02:44;;;;;;;13.38;7.00;;;18.70;56.70;;;;;;5013871;28;20026;-60
2021/04/20 01:05:16;;;;;;;9.82;6.88;;;18.70;56.70;;;;;;5011260;28;20034;-59
2021/04/20 01:07:43;;;;;;;11.50;6.75;;;18.70;56.60;;;;;;5011239;28;20513;-62
2021/04/20 01:10:11;;;;;;;11.77;6.90;;;18.70;56.70;;;;;;5011489;28;20084;-61
2021/04/20 01:12:38;;;;;;;10.90;6.90;;;18.60;56.60;;;;;;5011319;28;20045;-62
2021/04/20 01:15:09;;;;;;;11.13;6.63;;;18.60;56.60;;;;;;5005100;28;20815;-61
2021/04/20 01:17:35;;;;;;;10.15;6.82;;;18.60;56.60;;;;;;5010646;28;20026;-62
2021/04/20 01:20:04;;;;;;;11.00;7.00;;;18.60;56.60;;;;;;5011387;28;20034;-60
2021/04/20 01:22:33;;;;;;;12.85;7.38;;;18.60;56.40;;;;;;5010890;28;20049;-60
2021/04/20 01:24:59;;;;;;;11.30;7.43;;;18.60;56.40;;;;;;5011050;28;20034;-61
2021/04/20 01:27:26;;;;;;;11.43;7.88;;;18.60;56.40;;;;;;5011439;28;20120;-61
2021/04/20 01:29:56;;;;;;;9.00;6.43;;;18.60;56.30;;;;;;5010709;28;20030;-59
2021/04/20 01:32:23;;;;;;;10.18;6.55;;;18.60;56.30;;;;;;5007717;28;20038;-60
2021/04/20 01:34:49;;;;;;;9.93;6.72;;;18.70;56.40;;;;;;5003029;28;20454;-61
2021/04/20 01:37:15;;;;;;;9.63;7.00;;;18.70;56.50;;;;;;5011194;28;20034;-61
2021/04/20 01:39:43;;;;;;;9.25;6.88;;;18.60;56.40;;;;;;5009528;28;20483;-62
2021/04/20 01:42:09;;;;;;;9.27;6.65;;;18.60;56.50;;;;;;5010882;28;20487;-62
2021/04/20 01:44:35;;;;;;;10.18;7.00;;;18.60;56.60;;;;;;5008477;28;20061;-61
2021/04/20 01:47:01;;;;;;;9.95;6.85;;;18.60;56.70;;;;;;5010174;28;20033;-61
2021/04/20 01:49:27;;;;;;;9.82;6.95;;;18.60;56.80;;;;;;5010681;28;20052;-61
2021/04/20 01:51:52;;;;;;;9.98;7.05;;;18.60;56.80;;;;;;5009912;28;20017;-60
2021/04/20 01:54:19;;;;;;;10.73;7.03;;;18.60;56.80;;;;;;5010077;28;20030;-61
2021/04/20 01:56:46;;;;;;;9.88;6.93;;;18.60;56.80;;;;;;5009355;28;20030;-60
2021/04/20 01:59:14;;;;;;;10.35;7.50;;;18.60;56.80;;;;;;5010944;28;20137;-61
2021/04/20 02:01:40;;;;;;;12.60;7.30;;;18.60;56.90;;;;;;5006124;28;20064;-61
2021/04/20 02:04:07;;;;;;;10.38;7.15;;;18.60;57.00;;;;;;5004250;28;20071;-60
2021/04/20 02:06:33;;;;;;;9.85;6.85;;;18.50;57.00;;;;;;5010179;28;20034;-61
2021/04/20 02:08:59;;;;;;;9.65;6.95;;;18.50;57.00;;;;;;5010754;28;20032;-61
2021/04/20 02:11:24;;;;;;;11.05;7.10;;;18.50;57.00;;;;;;5010519;28;20109;-61
2021/04/20 02:13:51;;;;;;;10.13;7.18;;;18.50;57.00;;;;;;5010772;28;20034;-61
2021/04/20 02:16:17;;;;;;;11.75;7.40;;;18.50;57.00;;;;;;5009379;28;20021;-60
2021/04/20 02:18:46;;;;;;;10.07;6.80;;;18.40;57.00;;;;;;5007519;28;20045;-61
2021/04/20 02:21:13;;;;;;;10.35;7.32;;;18.50;57.00;;;;;;5010098;28;20034;-61
2021/04/20 02:23:44;;;;;;;13.52;7.63;;;18.40;57.10;;;;;;5009133;28;20033;-60
2021/04/20 02:26:17;;;;;;;12.32;7.60;;;18.40;57.00;;;;;;5009705;28;20474;-62
2021/04/20 02:28:43;;;;;;;9.98;7.10;;;18.40;57.10;;;;;;5010777;28;20137;-61
2021/04/20 02:31:09;;;;;;;9.77;7.47;;;18.40;57.10;;;;;;5009321;28;20125;-61
2021/04/20 02:33:36;;;;;;;10.45;7.85;;;18.40;56.80;;;;;;5010630;28;20044;-61
2021/04/20 02:36:04;;;;;;;10.73;7.20;;;18.40;56.90;;;;;;5008832;28;20057;-63
2021/04/20 02:38:32;;;;;;;11.07;7.00;;;18.40;57.00;;;;;;5010680;28;20026;-61
2021/04/20 02:41:00;;;;;;;11.68;7.68;;;18.40;57.00;;;;;;5009308;28;20117;-60
2021/04/20 02:43:26;;;;;;;11.95;8.23;;;18.30;56.90;;;;;;5010602;28;20026;-61
2021/04/20 02:45:54;;;;;;;13.98;8.30;;;18.30;56.90;;;;;;5008660;28;20030;-60
2021/04/20 02:48:20;;;;;;;11.90;7.93;;;18.40;56.80;;;;;;5010630;28;20061;-61
2021/04/20 02:50:46;;;;;;;9.75;7.60;;;18.40;56.70;;;;;;5010465;28;20057;-61
2021/04/20 02:53:15;;;;;;;11.10;7.22;;;18.40;56.70;;;;;;5008713;28;20493;-62
2021/04/20 02:55:42;;;;;;;10.27;7.47;;;18.50;56.80;;;;;;5010296;28;20053;-63
2021/04/20 02:58:15;;;;;;;11.57;8.05;;;18.40;56.70;;;;;;5014430;28;20021;-61
2021/04/20 03:00:44;;;;;;;10.88;7.50;;;18.50;56.80;;;;;;5013794;28;20029;-61
2021/04/20 03:03:11;;;;;;;12.35;7.65;;;18.50;56.70;;;;;;5014066;28;20083;-62
2021/04/20 03:05:37;;;;;;;10.65;7.45;;;18.50;56.70;;;;;;5012958;28;20033;-61
2021/04/20 03:08:05;;;;;;;10.18;7.45;;;18.50;56.60;;;;;;5012931;28;20029;-61
2021/04/20 03:10:32;;;;;;;11.88;7.68;;;18.50;56.60;;;;;;5013829;28;20018;-62
2021/04/20 03:12:58;;;;;;;12.65;7.65;;;18.40;56.70;;;;;;5012473;28;20060;-61
2021/04/20 03:15:25;;;;;;;11.15;8.13;;;18.40;56.70;;;;;;5013655;28;20038;-61
2021/04/20 03:17:50;;;;;;;13.13;8.20;;;18.40;56.70;;;;;;5013842;28;20046;-60
2021/04/20 03:20:18;;;;;;;12.43;7.95;;;18.40;56.70;;;;;;5013510;28;20512;-61
2021/04/20 03:22:45;;;;;;;11.15;7.82;;;18.30;56.70;;;;;;5013628;28;20022;-61
2021/04/20 03:25:11;;;;;;;12.52;7.90;;;18.30;56.70;;;;;;5013811;28;20036;-60
2021/04/20 03:27:48;;;;;;;20.40;8.48;;;18.30;56.70;;;;;;5013799;28;20461;-61
2021/04/20 03:30:15;;;;;;;12.05;8.43;;;18.20;56.90;;;;;;5011608;28;20125;-61
2021/04/20 03:32:52;;;;;;;11.80;8.00;;;18.20;56.90;;;;;;5012078;28;20057;-60
2021/04/20 03:35:23;;;;;;;12.05;8.48;;;18.20;56.90;;;;;;5013406;28;20025;-61
2021/04/20 03:37:58;;;;;;;15.15;8.13;;;18.20;57.00;;;;;;5013535;28;20109;-61
2021/04/20 03:40:26;;;;;;;11.80;7.63;;;18.20;56.90;;;;;;5011860;28;20041;-61
2021/04/20 03:42:56;;;;;;;12.15;8.35;;;18.20;56.90;;;;;;5013262;28;20065;-60
2021/04/20 03:45:37;;;;;;;11.00;7.82;;;18.10;56.90;;;;;;5011511;28;20030;-61
2021/04/20 03:48:14;;;;;;;11.55;8.35;;;18.10;57.00;;;;;;5012305;28;20125;-62
2021/04/20 03:50:48;;;;;;;13.07;8.43;;;18.10;56.80;;;;;;5012089;28;20114;-61
2021/04/20 03:53:16;;;;;;;11.57;8.50;;;18.10;56.80;;;;;;5012559;28;20033;-60
2021/04/20 03:55:47;;;;;;;12.15;8.45;;;18.10;56.80;;;;;;5009869;28;20044;-61
2021/04/20 03:58:14;;;;;;;11.35;8.25;;;18.10;56.90;;;;;;5012766;28;20057;-61
2021/04/20 04:00:41;;;;;;;13.00;7.80;;;18.10;56.80;;;;;;5012067;28;20029;-61
2021/04/20 04:03:09;;;;;;;11.40;8.50;;;18.10;56.80;;;;;;5010568;28;20179;-60
2021/04/20 04:05:37;;;;;;;15.32;8.65;;;18.10;56.80;;;;;;5010062;28;20031;-61
2021/04/20 04:08:06;;;;;;;14.93;8.85;;;18.10;56.80;;;;;;5012658;28;20034;-61
2021/04/20 04:10:33;;;;;;;13.27;9.00;;;18.10;56.80;;;;;;5013127;28;20052;-61
2021/04/20 04:13:02;;;;;;;14.95;9.00;;;18.10;56.70;;;;;;5012647;28;20026;-62
2021/04/20 04:15:29;;;;;;;11.77;7.93;;;18.10;56.70;;;;;;5012605;28;20026;-61
2021/04/20 04:17:57;;;;;;;11.98;8.57;;;18.10;56.70;;;;;;5012592;28;20049;-58
2021/04/20 04:20:23;;;;;;;11.52;8.02;;;18.10;56.70;;;;;;5011624;28;20475;-61
2021/04/20 04:22:54;;;;;;;12.60;8.63;;;18.10;56.60;;;;;;5011349;28;20121;-61
2021/04/20 04:25:25;;;;;;;11.25;8.02;;;18.20;56.70;;;;;;5010022;28;20121;-63
2021/04/20 04:27:52;;;;;;;10.90;8.05;;;18.10;56.60;;;;;;5004116;28;20061;-63
2021/04/20 04:30:20;;;;;;;14.70;8.52;;;18.20;56.60;;;;;;5001969;28;20036;-61
2021/04/20 04:32:47;;;;;;;11.38;7.95;;;18.20;56.60;;;;;;5005869;28;20500;-61
2021/04/20 04:35:13;;;;;;;12.98;8.15;;;18.40;56.30;;;;;;5004338;28;20033;-62
2021/04/20 04:37:40;;;;;;;12.52;8.52;;;18.50;55.90;;;;;;5006029;28;20047;-62
2021/04/20 04:40:07;;;;;;;12.55;7.80;;;18.70;55.60;;;;;;5004421;28;20040;-62
2021/04/20 04:42:33;;;;;;;17.08;8.38;;;18.80;55.30;;;;;;5004723;28;20030;-62
2021/04/20 04:45:02;;;;;;;12.27;8.20;;;19.00;55.20;;;;;;5005508;28;20040;-60
2021/04/20 04:47:28;;;;;;;9.65;7.40;;;19.10;55.20;;;;;;5005816;28;20033;-61
2021/04/20 04:49:59;;;;;;;11.25;7.97;;;19.10;55.00;;;;;;5002993;28;20531;-62
2021/04/20 04:52:25;;;;;;;13.27;8.00;;;19.20;54.90;;;;;;4998709;28;20026;-61
2021/04/20 04:54:51;;;;;;;12.23;8.10;;;19.20;54.80;;;;;;5001137;28;20392;-60
2021/04/20 04:57:18;;;;;;;12.57;7.50;;;19.30;54.80;;;;;;5000848;28;20037;-62
2021/04/20 04:59:45;;;;;;;13.45;8.75;;;19.30;54.80;;;;;;5002054;28;20034;-62
2021/04/20 05:02:11;;;;;;;13.43;9.48;;;19.30;54.80;;;;;;4996323;28;20052;-63
2021/04/20 05:04:37;;;;;;;15.23;10.00;;;19.30;54.60;;;;;;5004433;28;20619;-60
2021/04/20 05:07:03;;;;;;;15.57;10.38;;;19.30;54.20;;;;;;5005251;28;20094;-61
2021/04/20 05:09:29;;;;;;;15.90;10.20;;;19.30;54.00;;;;;;5003170;28;20030;-64
2021/04/20 05:11:54;;;;;;;18.50;10.32;;;19.30;53.90;;;;;;5003666;28;20593;-62
2021/04/20 05:14:21;;;;;;;18.83;10.10;;;19.40;54.10;;;;;;5004567;28;20041;-63
2021/04/20 05:16:52;;;;;;;15.55;9.00;;;19.40;54.30;;;;;;5004431;28;20030;-61
2021/04/20 05:19:31;;;;;;;19.25;9.85;;;19.40;54.50;;;;;;5003575;28;20034;-60
2021/04/20 05:21:57;;;;;;;15.77;9.27;;;19.50;54.60;;;;;;5004223;28;20042;-61
2021/04/20 05:24:24;;;;;;;19.92;10.20;;;19.50;54.60;;;;;;5003228;28;20092;-63
2021/04/20 05:26:49;;;;;;;18.95;9.32;;;19.60;54.40;;;;;;5004358;28;20422;-66
2021/04/20 05:29:16;;;;;;;16.13;10.50;;;19.60;54.10;;;;;;5002969;28;20030;-64
2021/04/20 05:31:42;;;;;;;16.23;9.60;;;19.70;55.20;;;;;;5005231;28;20026;-61
2021/04/20 05:34:07;;;;;;;17.00;10.25;;;19.70;54.40;;;;;;5002417;28;20139;-66
2021/04/20 05:36:35;;;;;;;16.08;9.65;;;19.70;54.10;;;;;;5001643;28;20038;-61
2021/04/20 05:39:05;;;;;;;20.25;10.25;;;19.80;53.80;;;;;;5002304;28;20819;-60
2021/04/20 05:41:34;;;;;;;15.07;9.80;;;19.80;53.90;;;;;;5010072;28;20049;-60
2021/04/20 05:44:04;;;;;;;16.17;9.57;;;19.90;54.10;;;;;;5003877;28;20030;-62
2021/04/20 05:46:30;;;;;;;18.63;9.27;;;19.90;53.70;;;;;;5003571;28;20060;-60
2021/04/20 05:48:57;;;;;;;17.48;9.00;;;19.90;53.70;;;;;;5001949;28;20025;-61
2021/04/20 05:51:23;;;;;;;15.85;8.98;;;20.00;53.60;;;;;;5003753;28;20064;-60
2021/04/20 05:53:52;;;;;;;17.52;8.88;;;20.00;53.30;;;;;;5001222;28;20029;-62
2021/04/20 05:56:18;;;;;;;13.43;8.27;;;20.10;53.00;;;;;;5002070;28;20052;-62
2021/04/20 05:58:45;;;;;;;21.00;9.38;;;20.20;52.80;;;;;;5003330;28;20033;-63
2021/04/20 06:01:11;;;;;;;31.23;9.40;;;20.30;52.60;;;;;;5004837;28;20113;-62
2021/04/20 06:03:40;;;;;;;19.90;9.38;;;20.40;52.30;;;;;;5004665;28;20403;-61
2021/04/20 06:06:07;;;;;;;19.17;9.38;;;20.50;51.90;;;;;;5003203;28;20077;-62
2021/04/20 06:08:37;;;;;;;17.85;8.60;;;20.60;51.60;;;;;;5004824;28;20026;-62
2021/04/20 06:11:04;;;;;;;17.08;9.35;;;20.70;51.20;;;;;;5003368;28;20018;-62
2021/04/20 06:13:30;;;;;;;16.17;9.07;;;20.80;51.00;;;;;;5004566;28;20065;-65
2021/04/20 06:15:56;;;;;;;16.63;8.13;;;20.90;50.60;;;;;;5003263;28;20463;-61
2021/04/20 06:18:23;;;;;;;17.67;9.07;;;21.10;50.80;;;;;;5003439;28;20037;-62
2021/04/20 06:20:50;;;;;;;15.40;9.00;;;21.20;50.30;;;;;;4994773;28;20104;-61
2021/04/20 06:23:16;;;;;;;15.07;8.70;;;21.30;49.70;;;;;;5003107;28;20060;-61
2021/04/20 06:25:44;;;;;;;15.75;8.68;;;21.40;49.60;;;;;;5003419;28;20041;-62
2021/04/20 06:28:11;;;;;;;19.27;9.23;;;21.50;49.20;;;;;;5001041;28;20841;-62
2021/04/20 06:30:37;;;;;;;15.60;8.75;;;21.60;48.90;;;;;;5004970;28;20028;-61
2021/04/20 06:33:05;;;;;;;15.90;8.77;;;21.70;48.70;;;;;;5003822;28;20030;-63
2021/04/20 06:35:31;;;;;;;14.68;8.93;;;21.80;48.80;;;;;;5004759;28;20030;-61
2021/04/20 06:37:56;;;;;;;14.57;9.05;;;21.80;48.10;;;;;;5006914;28;20033;-61
2021/04/20 06:40:31;;;;;;;12.85;8.80;;;22.00;47.80;;;;;;5004707;28;20499;-62
2021/04/20 06:43:06;;;;;;;13.70;8.63;;;22.10;47.50;;;;;;5006959;28;20431;-61
2021/04/20 06:45:45;;;;;;;14.85;8.35;;;22.20;47.40;;;;;;4999071;28;20061;-62
2021/04/20 06:48:33;;;;;;;13.65;8.55;;;22.30;47.30;;;;;;5004618;28;20492;-63
2021/04/20 06:51:00;;;;;;;11.95;7.90;;;22.40;47.10;;;;;;5009235;28;20037;-61
2021/04/20 06:53:33;;;;;;;13.70;8.40;;;22.50;47.20;;;;;;5000973;28;20022;-62
2021/04/20 06:56:01;;;;;;;11.55;7.65;;;22.60;46.80;;;;;;5007023;28;20030;-62
2021/04/20 06:58:40;;;;;;;12.88;7.75;;;22.60;46.80;;;;;;5004471;28;20030;-66
2021/04/20 07:01:12;;;;;;;15.32;8.68;;;22.70;46.50;;;;;;5004568;28;20429;-62
2021/04/20 07:03:48;;;;;;;12.15;8.25;;;22.80;46.30;;;;;;5006681;28;20058;-65
2021/04/20 07:06:31;;;;;;;15.32;8.32;;;22.80;46.00;;;;;;5005884;28;20059;-63
2021/04/20 07:09:12;;;;;;;12.68;7.93;;;23.00;46.40;;;;;;5012414;28;20080;-61
2021/04/20 07:11:50;;;;;;;13.45;8.20;;;23.00;45.90;;;;;;5013419;28;20703;-60
2021/04/20 07:14:31;;;;;;;12.35;8.00;;;23.10;46.10;;;;;;5012274;28;20487;-63
2021/04/20 07:17:47;;;;;;;13.45;8.02;;;23.20;45.90;;;;;;5010317;28;20087;-61
2021/04/20 07:20:46;;;;;;;13.80;8.13;;;23.30;45.30;;;;;;4990285;28;20061;-61
2021/04/20 07:23:18;;;;;;;11.23;7.85;;;23.30;45.10;;;;;;5010684;28;20026;-60
2021/04/20 07:26:17;;;;;;;11.70;8.00;;;23.40;44.70;;;;;;5023936;28;20384;-61
2021/04/20 07:28:58;;;;;;;11.57;8.00;;;23.40;44.60;;;;;;4993985;28;20022;-60
2021/04/20 07:31:56;;;;;;;11.90;7.95;;;23.50;44.60;;;;;;5000354;28;20472;-61
2021/04/20 07:34:39;;;;;;;12.07;8.32;;;23.50;44.60;;;;;;5013325;28;20053;-60
2021/04/20 07:37:11;;;;;;;11.90;7.68;;;23.30;45.20;;;;;;5013722;28;20048;-61
2021/04/20 07:40:02;;;;;;;10.70;7.57;;;23.20;45.10;;;;;;5013844;28;20079;-61
2021/04/20 07:42:39;;;;;;;10.85;7.57;;;23.10;45.00;;;;;;5012842;28;20542;-62
2021/04/20 07:45:13;;;;;;;11.50;7.90;;;22.80;45.40;;;;;;5011716;28;20110;-61
2021/04/20 07:47:47;;;;;;;11.93;8.02;;;22.70;45.60;;;;;;5013017;28;20024;-60
2021/04/20 07:50:17;;;;;;;11.70;8.25;;;22.50;45.90;;;;;;5013215;28;20522;-62
2021/04/20 07:52:55;;;;;;;11.83;7.80;;;22.40;45.90;;;;;;5011611;28;20037;-61
2021/04/20 07:55:26;;;;;;;10.90;7.78;;;22.30;46.40;;;;;;5065623;23;20325;-59
2021/04/20 07:58:02;;;;;;;12.03;7.50;;;22.30;46.40;;;;;;5008011;28;20083;-60
2021/04/20 08:00:34;;;;;;;12.18;7.55;;;22.40;46.20;;;;;;5026836;28;20064;-65
2021/04/20 08:03:05;;;;;;;;;;;22.40;46.50;;;;;;5009376;28;20376;-65
2021/04/20 08:05:44;;;;;;;9.88;7.32;;;22.40;46.40;;;;;;5019041;28;20349;-65
2021/04/20 08:08:14;;;;;;;10.57;6.93;;;22.40;46.40;;;;;;5008396;28;20025;-65
2021/04/20 08:11:05;;;;;;;9.43;7.22;;;22.60;46.40;;;;;;5012207;28;20392;-66
2021/04/20 08:13:36;;;;;;;10.38;7.03;;;22.80;45.90;;;;;;5010427;28;20033;-64
2021/04/20 08:16:15;;;;;;;11.07;7.63;;;22.70;46.00;;;;;;5012541;28;20096;-66
2021/04/20 08:18:55;;;;;;;10.35;6.97;;;23.00;46.00;;;;;;5011754;28;20431;-65
2021/04/20 08:21:21;;;;;;;11.80;7.93;;;22.80;45.50;;;;;;5012299;28;20038;-66
2021/04/20 08:23:48;;;;;;;11.60;7.60;;;22.80;45.60;;;;;;5009134;28;20036;-65
2021/04/20 08:26:21;;;;;;;9.55;6.70;;;23.10;45.10;;;;;;5006725;28;20026;-64
2021/04/20 08:29:01;;;;;;;10.95;7.28;;;23.40;44.80;;;;;;5007719;28;20030;-64
2021/04/20 08:31:45;;;;;;;8.85;6.35;;;23.30;44.60;;;;;;5009637;28;20486;-64
2021/04/20 08:34:46;;;;;;;13.25;6.93;;;23.70;44.40;;;;;;5010888;28;20495;-66
2021/04/20 08:37:31;;;;;;;10.93;7.00;;;23.60;44.00;;;;;;4962718;28;20377;-65
2021/04/20 08:40:12;;;;;;;10.00;6.95;;;24.30;43.30;;;;;;5008715;28;20050;-64
2021/04/20 08:43:28;;;;;;;13.50;6.68;;;25.10;42.20;;;;;;5006940;28;20053;-64
2021/04/20 08:46:24;;;;;;;10.85;6.55;;;25.40;41.20;;;;;;5002305;28;20053;-64
2021/04/20 08:49:14;;;;;;;11.75;6.47;;;25.70;40.90;;;;;;5002336;28;20073;-65
2021/04/20 08:51:53;;;;;;;11.40;7.32;;;25.90;40.70;;;;;;5004019;28;20365;-64
2021/04/20 08:54:35;;;;;;;10.85;7.05;;;26.00;40.20;;;;;;4995459;28;20373;-64
2021/04/20 08:57:17;;;;;;;13.25;7.30;;;26.20;40.00;;;;;;5021857;28;20030;-66
2021/04/20 09:00:37;;;;;;;13.68;7.15;;;26.30;39.60;;;;;;5005625;28;20087;-65
2021/04/20 09:03:14;;;;;;;10.13;7.47;;;26.50;39.60;;;;;;4957970;28;20043;-66
2021/04/20 09:05:48;;;;;;;9.90;7.13;;;26.60;39.20;;;;;;5012014;28;20052;-65
2021/04/20 09:08:35;;;;;;;10.07;6.95;;;26.70;39.10;;;;;;5010873;28;20033;-66
2021/04/20 09:11:04;;;;;;;11.00;7.50;;;26.70;38.80;;;;;;5010446;28;20026;-65
2021/04/20 09:13:35;;;;;;;11.20;6.85;;;26.90;38.80;;;;;;5011071;28;20018;-62
2021/04/20 09:16:10;;;;;;;11.00;6.75;;;27.00;38.40;;;;;;5008004;28;20438;-65
2021/04/20 09:18:42;;;;;;;11.98;7.13;;;27.10;38.00;;;;;;5011082;28;20025;-66
2021/04/20 09:21:14;;;;;;;;;;;27.20;37.90;;;;;;5007030;28;20030;-65
2021/04/20 09:23:54;;;;;;;10.57;6.72;;;27.40;37.90;;;;;;5011164;28;20322;-66
2021/04/20 09:26:34;;;;;;;9.50;6.88;;;27.50;37.70;;;;;;5009854;28;20034;-64
2021/04/20 09:29:12;;;;;;;11.27;6.60;;;27.50;37.50;;;;;;5008149;28;20491;-64
2021/04/20 09:31:45;;;;;;;10.63;7.15;;;27.60;37.70;;;;;;5010201;28;20056;-66
2021/04/20 09:34:12;;;;;;;9.70;6.38;;;27.60;37.40;;;;;;5009611;28;20026;-65
2021/04/20 09:36:40;;;;;;;9.65;6.30;;;27.70;37.40;;;;;;5006755;28;20026;-66
2021/04/20 09:39:08;;;;;;;10.13;6.78;;;27.80;37.30;;;;;;5009069;28;20040;-66
2021/04/20 09:41:42;;;;;;;10.93;7.03;;;27.90;37.10;;;;;;5010718;28;20376;-66
2021/04/20 09:44:44;;;;;;;10.77;6.95;;;28.00;37.00;;;;;;5010593;28;20032;-65
2021/04/20 09:47:18;;;;;;;9.45;7.00;;;28.10;36.70;;;;;;5009159;28;20025;-65
2021/04/20 09:49:59;;;;;;;11.43;6.68;;;28.10;36.50;;;;;;5010767;28;20061;-66
2021/04/20 09:52:33;;;;;;;9.40;5.90;;;28.20;36.60;;;;;;4996767;28;20488;-66
2021/04/20 09:55:07;;;;;;;8.70;6.07;;;28.20;36.50;;;;;;5009281;28;20033;-65
2021/04/20 09:57:39;;;;;;;8.70;5.63;;;28.20;36.40;;;;;;5008101;28;20026;-65
2021/04/20 10:00:08;;;;;;;9.82;5.18;;;28.20;36.40;;;;;;5009048;28;20037;-65
2021/04/20 10:02:48;;;;;;;9.43;6.22;;;28.20;36.40;;;;;;5009835;28;20099;-63
2021/04/20 10:05:42;;;;;;;7.80;5.47;;;28.30;36.30;;;;;;5009167;28;20026;-63
2021/04/20 10:08:27;;;;;;;20.70;5.85;;;28.30;36.10;;;;;;5009682;28;20030;-65
2021/04/20 10:11:13;;;;;;;9.48;5.70;;;28.30;36.20;;;;;;5010635;28;20026;-66
2021/04/20 10:13:55;;;;;;;8.77;5.13;;;28.40;36.20;;;;;;5009950;28;20025;-66
2021/04/20 10:16:28;;;;;;;8.43;5.78;;;28.50;36.00;;;;;;5010703;28;20022;-65
2021/04/20 10:19:11;;;;;;;9.50;5.40;;;28.40;35.90;;;;;;5010297;28;20049;-66
2021/04/20 10:21:39;;;;;;;9.07;5.57;;;28.40;36.00;;;;;;5004966;28;20539;-65
2021/04/20 10:24:13;;;;;;;8.27;5.60;;;28.40;36.20;;;;;;4998251;28;20030;-63
2021/04/20 10:27:08;;;;;;;8.65;5.55;;;28.40;35.90;;;;;;5009184;28;20030;-65
2021/04/20 10:29:55;;;;;;;8.52;5.53;;;28.50;35.90;;;;;;5007180;28;20105;-65
2021/04/20 10:32:28;;;;;;;10.18;4.97;;;28.60;35.70;;;;;;5004832;28;20032;-66
2021/04/20 10:34:54;;;;;;;8.65;5.32;;;28.50;35.80;;;;;;4999445;28;20029;-63
2021/04/20 10:37:29;;;;;;;8.15;5.30;;;28.50;35.90;;;;;;5007073;28;20439;-65
2021/04/20 10:39:56;;;;;;;9.45;5.55;;;28.50;35.80;;;;;;5008746;28;20395;-65
2021/04/20 10:42:29;;;;;;;8.15;4.80;;;28.50;35.80;;;;;;5010292;28;20030;-66
2021/04/20 10:44:56;;;;;;;8.65;4.82;;;28.50;35.80;;;;;;5009921;28;20038;-66
2021/04/20 10:47:23;;;;;;;8.70;5.70;;;28.60;35.80;;;;;;5006367;28;20025;-66
2021/04/20 10:49:51;;;;;;;6.85;4.68;;;28.40;35.60;;;;;;5010424;28;20057;-65
2021/04/20 10:52:18;;;;;;;8.25;5.65;;;28.00;36.60;;;;;;5010446;28;20104;-66
2021/04/20 10:54:45;;;;;;;7.80;5.32;;;28.20;35.70;;;;;;5008620;28;20418;-66
2021/04/20 10:57:12;;;;;;;9.73;5.70;;;28.50;35.90;;;;;;5009421;28;20022;-66
2021/04/20 10:59:40;;;;;;;8.27;5.50;;;28.60;35.50;;;;;;5010079;28;20026;-63
2021/04/20 11:02:20;;;;;;;8.38;5.20;;;28.50;35.50;;;;;;5010076;28;20153;-65
2021/04/20 11:04:47;;;;;;;8.32;5.20;;;28.50;35.50;;;;;;5009501;28;20101;-66
2021/04/20 11:07:19;;;;;;;7.72;5.20;;;28.60;35.40;;;;;;5008478;28;20034;-66
2021/04/20 11:09:57;;;;;;;7.50;4.80;;;28.50;35.40;;;;;;5010472;28;20072;-66
2021/04/20 11:12:26;;;;;;;7.85;4.90;;;28.60;35.50;;;;;;5010256;28;20029;-66
2021/04/20 11:14:52;;;;;;;7.95;5.05;;;28.60;35.40;;;;;;5007881;28;20054;-65
2021/04/20 11:17:33;;;;;;;8.60;4.80;;;28.70;35.40;;;;;;5011580;28;20384;-66
2021/04/20 11:20:10;;;;;;;7.75;4.78;;;28.60;35.20;;;;;;5013633;28;20040;-64
2021/04/20 11:22:46;;;;;;;7.45;4.70;;;28.60;35.30;;;;;;5012477;28;20021;-66
2021/04/20 11:25:50;;;;;;;9.55;4.75;;;28.60;35.50;;;;;;5012479;28;20399;-64
2021/04/20 11:28:19;;;;;;;7.65;4.53;;;28.70;35.30;;;;;;4982174;28;20119;-65
2021/04/20 11:31:29;;;;;;;8.27;4.40;;;28.60;35.70;;;;;;5009838;28;20034;-65
2021/04/20 11:34:21;;;;;;;8.40;4.68;;;28.50;35.30;;;;;;5007206;28;20272;-65
2021/04/20 11:36:54;;;;;;;8.13;4.80;;;28.40;35.70;;;;;;5010361;28;20029;-66
2021/04/20 11:39:31;;;;;;;8.43;5.45;;;28.30;35.60;;;;;;5011528;28;20026;-66
2021/04/20 11:42:12;;;;;;;7.40;5.05;;;28.20;35.60;;;;;;5011119;28;20116;-66
2021/04/20 11:44:48;;;;;;;8.38;4.78;;;28.10;35.80;;;;;;4998111;28;20033;-65
2021/04/20 11:47:14;;;;;;;6.97;4.80;;;27.90;36.50;;;;;;5009052;28;20506;-65
2021/04/20 11:50:04;;;;;;;8.35;4.88;;;27.80;36.30;;;;;;5012282;28;20028;-65
2021/04/20 11:52:33;;;;;;;7.93;4.97;;;27.60;36.70;;;;;;5012248;28;20104;-65
2021/04/20 11:55:06;;;;;;;7.75;4.90;;;27.30;37.10;;;;;;5011473;28;20034;-66
2021/04/20 11:57:34;;;;;;;8.32;5.57;;;26.90;37.80;;;;;;4995012;28;20544;-64
2021/04/20 12:00:03;;;;;;;7.90;5.45;;;26.30;38.50;;;;;;5012566;28;20457;-65
2021/04/20 12:02:30;;;;;;;11.55;5.28;;;25.70;39.20;;;;;;5010864;28;20034;-66
2021/04/20 12:05:07;;;;;;;10.77;4.60;;;25.20;39.70;;;;;;5011375;28;20030;-65
2021/04/20 12:07:34;;;;;;;9.13;4.68;;;24.90;40.80;;;;;;5012702;28;20085;-65
2021/04/20 12:10:01;;;;;;;7.82;4.60;;;24.60;41.10;;;;;;5012371;28;20018;-66
2021/04/20 12:12:35;;;;;;;8.30;4.60;;;24.50;41.10;;;;;;5012632;28;20029;-65
2021/04/20 12:15:04;;;;;;;8.60;5.22;;;24.30;41.50;;;;;;5010414;28;20033;-65
2021/04/20 12:17:38;;;;;;;9.23;4.97;;;24.20;41.60;;;;;;5011169;28;20026;-64
2021/04/20 12:20:09;;;;;;;8.40;4.90;;;24.10;42.10;;;;;;5012362;28;20100;-66
2021/04/20 12:22:35;;;;;;;10.95;5.43;;;24.00;41.90;;;;;;5010526;28;20030;-63
2021/04/20 12:25:03;;;;;;;9.73;4.80;;;23.90;42.10;;;;;;5011411;28;20061;-66
2021/04/20 12:27:30;;;;;;;22.92;6.85;;;23.80;43.00;;;;;;5011455;28;20033;-69
2021/04/20 12:29:58;;;;;;;11.07;5.18;;;23.70;42.40;;;;;;5010864;28;20109;-64
2021/04/20 12:32:24;;;;;;;8.30;4.50;;;23.70;42.70;;;;;;5012095;28;20039;-65
2021/04/20 12:34:57;;;;;;;9.30;4.72;;;23.60;42.80;;;;;;5005499;28;20026;-65
2021/04/20 12:37:25;;;;;;;7.28;4.70;;;23.50;43.20;;;;;;5010721;28;20029;-65
2021/04/20 12:40:03;;;;;;;8.48;4.90;;;23.40;43.10;;;;;;5010643;28;20033;-66
2021/04/20 12:42:42;;;;;;;7.15;4.32;;;23.40;43.00;;;;;;5011352;28;20026;-65
2021/04/20 12:45:14;;;;;;;9.50;4.60;;;23.30;43.40;;;;;;5010918;28;20022;-64
2021/04/20 12:47:40;;;;;;;8.80;4.20;;;23.20;43.70;;;;;;5012121;28;20518;-66
2021/04/20 12:50:09;;;;;;;8.48;4.50;;;23.10;43.80;;;;;;5012302;28;20026;-66
2021/04/20 12:52:38;;;;;;;8.90;4.75;;;23.10;43.80;;;;;;5011319;28;20398;-65
2021/04/20 12:55:11;;;;;;;9.48;4.97;;;23.00;43.70;;;;;;5011268;28;20022;-61
2021/04/20 12:57:43;;;;;;;14.05;5.28;;;23.00;43.50;;;;;;5010084;28;20050;-65
2021/04/20 13:00:16;;;;;;;10.82;4.78;;;23.00;43.60;;;;;;5011315;28;20506;-64
2021/04/20 13:02:44;;;;;;;11.27;4.90;;;22.90;42.70;;;;;;5012018;28;20034;-63
2021/04/20 13:05:11;;;;;;;10.10;4.40;;;22.90;42.50;;;;;;5010949;28;20037;-64